Wattsville, Virginia
Current Conditions -  °F | °C
As of 12:54 AM on Wednesday 22 Oct 2014 (Local Time) from KWAL Reporting Station
Broken Clouds Broken Clouds  
Wind Chill: 57°   Ceiling: 12000
Heat Index: 57°   Visibility: 10mi
Dew Point: 54°   Wind: 5mph
Humidity: 89%   Direction: 10°N
Pressure: 29.83"   Gusts: NA
Location:  37.93°N, 75.5°W
Report Text: KWAL 220454Z AUTO 01004KT 10SM BKN120 14/12 A2983 RMK AO2 SLP098 T01390122 402330139
Loading
Personal Weather Stations






























Interactive Weather Map
Tropical Storm Tracking
New forecast layout! Learn more

10-Day Weather Forecast

Advertisements
Track Severe Weather on mobile